Progress, Oregon
Current Conditions -  °F | °C
As of 7:53 PM on Sunday 23 Nov 2014 (Local Time) from KHIO Reporting Station
Haze Haze  
Wind Chill: 54°   Ceiling: 800
Heat Index: 54°   Visibility: 2.5mi
Dew Point: 46°   Wind: 3mph
Humidity: 75%   Direction: 310°NW
Pressure: 30.33"   Gusts: NA
Location:  45.4908°N, 122.804°W
Report Text: KHIO 240353Z 31003KT 2 1/2SM HZ BKN008 BKN049 OVC055 12/08 A3033 RMK AO2 SLP272 T01220078
Loading
Personal Weather Stations






























Interactive Weather Map New forecast layout! Learn more

10-Day Weather Forecast

Advertisements
Track Severe Weather on mobile